createdAt,value
2018-11-28T00:00:29.808Z,34.65
2018-11-28T00:02:59.584Z,46.98
2018-11-28T00:05:28.280Z,43.23
2018-11-28T00:07:57.033Z,35.98
2018-11-28T00:10:25.674Z,41.30
2018-11-28T00:12:54.350Z,69.17
2018-11-28T00:15:23.021Z,41.48
2018-11-28T00:17:52.089Z,72.12
2018-11-28T00:20:22.071Z,47.15
2018-11-28T00:22:50.701Z,38.83
2018-11-28T00:25:19.782Z,39.35
2018-11-28T00:27:48.412Z,39.92
2018-11-28T00:30:22.616Z,37.13
2018-11-28T00:32:51.299Z,39.83
2018-11-28T00:35:21.038Z,37.33
2018-11-28T00:37:49.728Z,35.85
2018-11-28T00:40:19.651Z,39.70
2018-11-28T00:42:48.338Z,41.15
2018-11-28T00:45:18.583Z,48.78
2018-11-28T00:47:47.379Z,46.77
2018-11-28T00:50:23.886Z,43.75
2018-11-28T00:52:52.593Z,45.58
2018-11-28T00:55:21.229Z,46.18
2018-11-28T00:57:49.829Z,55.05
2018-11-28T01:00:20.113Z,50.75
2018-11-28T01:02:49.414Z,52.25
2018-11-28T01:05:18.413Z,45.15
2018-11-28T01:07:48.041Z,48.85
2018-11-28T01:10:18.814Z,45.30
2018-11-28T01:12:47.864Z,46.53
2018-11-28T01:15:17.497Z,45.12
2018-11-28T01:17:46.338Z,51.25
2018-11-28T01:20:18.343Z,46.60
2018-11-28T01:22:47.067Z,41.80
2018-11-28T01:25:19.736Z,53.10
2018-11-28T01:27:48.581Z,49.50
2018-11-28T01:30:19.472Z,50.17
2018-11-28T01:32:48.235Z,49.60
2018-11-28T01:35:18.519Z,50.55
2018-11-28T01:37:47.267Z,56.30
2018-11-28T01:40:17.616Z,56.98
2018-11-28T01:42:46.233Z,49.05
2018-11-28T01:45:17.726Z,50.52
2018-11-28T01:47:46.666Z,53.30
2018-11-28T01:50:19.253Z,61.18
2018-11-28T01:52:47.924Z,50.98
2018-11-28T01:55:17.578Z,52.00
2018-11-28T01:57:46.424Z,56.23
2018-11-28T02:00:20.881Z,51.75
2018-11-28T02:02:52.870Z,56.08
2018-11-28T02:05:21.474Z,57.90
2018-11-28T02:07:50.149Z,56.50
2018-11-28T02:10:18.839Z,57.45
2018-11-28T02:12:47.480Z,49.80
2018-11-28T02:15:18.037Z,45.55
2018-11-28T02:17:46.757Z,45.30
2018-11-28T02:20:17.158Z,40.10
2018-11-28T02:22:46.254Z,50.92
2018-11-28T02:25:15.815Z,45.92
2018-11-28T02:27:44.652Z,56.80
2018-11-28T02:30:15.313Z,45.90
2018-11-28T02:32:44.337Z,43.95
2018-11-28T02:35:13.839Z,39.58
2018-11-28T02:37:42.722Z,47.75
2018-11-28T02:40:14.470Z,44.75
2018-11-28T02:42:43.125Z,45.33
2018-11-28T02:45:16.880Z,39.13
2018-11-28T02:47:45.651Z,38.15
2018-11-28T02:50:14.620Z,48.95
2018-11-28T02:52:43.366Z,37.48
2018-11-28T02:55:12.841Z,52.93
2018-11-28T02:57:46.270Z,44.80
2018-11-28T03:00:16.961Z,45.20
2018-11-28T03:02:45.759Z,46.00
2018-11-28T03:05:14.935Z,46.70
2018-11-28T03:07:43.683Z,43.35
2018-11-28T03:10:13.812Z,51.98
2018-11-28T03:12:42.600Z,45.92
2018-11-28T03:15:22.205Z,46.98
2018-11-28T03:17:50.900Z,47.35
2018-11-28T03:20:19.557Z,49.48
2018-11-28T03:22:48.314Z,39.70
2018-11-28T03:25:16.989Z,48.60
2018-11-28T03:27:45.770Z,44.88
2018-11-28T03:30:15.497Z,45.50
2018-11-28T03:32:44.275Z,41.23
2018-11-28T03:35:15.716Z,45.10
2018-11-28T03:37:44.580Z,40.25
2018-11-28T03:40:13.625Z,56.65
2018-11-28T03:42:42.571Z,38.70
2018-11-28T03:45:13.708Z,44.60
2018-11-28T03:47:43.117Z,44.83
2018-11-28T03:50:13.254Z,42.27
2018-11-28T03:52:41.934Z,50.28
2018-11-28T03:55:12.803Z,44.93
2018-11-28T03:57:41.529Z,37.25
2018-11-28T04:00:14.394Z,35.38
2018-11-28T04:02:43.162Z,46.33
2018-11-28T04:05:13.551Z,43.98
2018-11-28T04:07:42.208Z,40.50
2018-11-28T04:10:13.031Z,41.63
2018-11-28T04:12:42.567Z,38.00
2018-11-28T04:15:18.396Z,42.62
2018-11-28T04:17:47.160Z,43.45
2018-11-28T04:20:17.560Z,48.40
2018-11-28T04:22:46.245Z,42.83
2018-11-28T04:25:15.978Z,40.67
2018-11-28T04:27:44.652Z,50.60
2018-11-28T04:30:17.124Z,39.00
2018-11-28T04:32:46.546Z,44.35
2018-11-28T04:35:15.646Z,45.48
2018-11-28T04:37:45.248Z,49.90
2018-11-28T04:40:19.100Z,38.33
2018-11-28T04:42:49.319Z,54.60
2018-11-28T04:45:20.387Z,48.75
2018-11-28T04:47:49.197Z,48.50
2018-11-28T04:50:17.896Z,44.33
2018-11-28T04:52:46.685Z,31.97
2018-11-28T04:55:19.026Z,42.88
2018-11-28T04:57:47.975Z,41.92
2018-11-28T05:00:21.550Z,40.15
2018-11-28T05:02:50.404Z,42.65
2018-11-28T05:05:19.243Z,36.28
2018-11-28T05:07:49.809Z,40.75
2018-11-28T05:10:20.664Z,38.60
2018-11-28T05:12:51.446Z,37.25
2018-11-28T05:15:21.120Z,34.78
2018-11-28T05:17:51.110Z,39.88
2018-11-28T05:20:27.759Z,35.38
2018-11-28T05:22:56.927Z,37.15
2018-11-28T05:25:28.142Z,47.90
2018-11-28T05:27:57.532Z,39.50
2018-11-28T05:30:27.372Z,41.77
2018-11-28T05:32:56.066Z,43.20
2018-11-28T05:35:29.222Z,37.93
2018-11-28T05:37:58.305Z,38.75
2018-11-28T05:40:27.794Z,44.35
2018-11-28T05:42:56.719Z,46.75
2018-11-28T05:45:25.436Z,42.45
2018-11-28T05:47:54.207Z,39.38
2018-11-28T05:50:23.201Z,36.30
2018-11-28T05:52:52.349Z,32.93
2018-11-28T05:55:22.103Z,43.30
2018-11-28T05:57:50.823Z,35.45
2018-11-28T06:00:39.019Z,37.55
2018-11-28T06:03:08.787Z,47.88
2018-11-28T06:05:37.541Z,34.58
2018-11-28T06:08:07.377Z,37.08
2018-11-28T06:10:36.205Z,39.35
2018-11-28T06:13:04.913Z,41.35
2018-11-28T06:15:33.561Z,38.70
2018-11-28T06:18:02.230Z,39.60
2018-11-28T06:20:30.976Z,31.82
2018-11-28T06:22:59.695Z,48.05
2018-11-28T06:25:28.430Z,43.80
2018-11-28T06:27:57.123Z,39.63
2018-11-28T06:30:25.862Z,33.00
2018-11-28T06:32:55.260Z,42.48
2018-11-28T06:35:24.051Z,45.25
2018-11-28T06:37:52.734Z,41.83
2018-11-28T06:40:24.214Z,41.90
2018-11-28T06:42:49.978Z,39.42
2018-11-28T06:45:20.306Z,38.48
2018-11-28T06:47:49.145Z,41.98
2018-11-28T06:50:19.211Z,40.52
2018-11-28T06:52:51.127Z,37.33
2018-11-28T06:55:21.527Z,43.10
2018-11-28T06:57:50.329Z,36.50
2018-11-28T07:00:23.379Z,34.55
2018-11-28T07:02:53.249Z,41.63
2018-11-28T07:05:22.701Z,39.85
2018-11-28T07:07:51.818Z,42.70
2018-11-28T07:10:21.558Z,45.15
2018-11-28T07:12:50.415Z,38.15
2018-11-28T07:15:20.937Z,45.10
2018-11-28T07:17:49.742Z,40.10
2018-11-28T07:20:19.542Z,42.45
2018-11-28T07:22:48.294Z,48.33
2018-11-28T07:25:18.562Z,37.78
2018-11-28T07:27:48.111Z,40.63
2018-11-28T07:30:21.737Z,32.60
2018-11-28T07:32:52.727Z,36.05
2018-11-28T07:35:21.430Z,35.52
2018-11-28T07:37:50.210Z,45.85
2018-11-28T07:40:21.561Z,42.17
2018-11-28T07:43:14.859Z,38.85
2018-11-28T07:45:45.039Z,40.85
2018-11-28T07:48:13.838Z,43.25
2018-11-28T07:50:42.547Z,36.28
2018-11-28T07:53:11.289Z,41.53
2018-11-28T07:55:40.195Z,41.42
2018-11-28T07:58:08.837Z,34.63
2018-11-28T08:00:37.839Z,40.83
2018-11-28T08:03:08.983Z,38.10
2018-11-28T08:05:38.568Z,40.83
2018-11-28T08:08:09.764Z,37.65
2018-11-28T08:10:38.502Z,37.38
2018-11-28T08:13:08.242Z,40.88
2018-11-28T08:15:37.499Z,37.50
2018-11-28T08:18:06.351Z,35.38
2018-11-28T08:20:35.740Z,31.20
2018-11-28T08:23:04.553Z,35.78
2018-11-28T08:25:33.385Z,34.78
2018-11-28T08:28:02.092Z,36.75
2018-11-28T08:30:30.870Z,34.00
2018-11-28T08:32:59.508Z,34.50
2018-11-28T08:35:28.353Z,38.28
2018-11-28T08:37:56.982Z,35.35
2018-11-28T08:40:27.459Z,38.23
2018-11-28T08:42:57.245Z,32.98
2018-11-28T08:45:25.980Z,39.90
2018-11-28T08:47:56.174Z,28.47
2018-11-28T08:50:28.476Z,34.73
2018-11-28T08:52:57.220Z,32.53
2018-11-28T08:55:26.118Z,33.95
2018-11-28T08:57:54.950Z,39.88
2018-11-28T09:00:24.747Z,35.20
2018-11-28T09:02:55.762Z,36.28
2018-11-28T09:05:24.667Z,37.40
2018-11-28T09:07:53.953Z,33.98
2018-11-28T09:10:22.668Z,35.95
2018-11-28T09:12:51.965Z,31.80
2018-11-28T09:15:23.853Z,32.28
2018-11-28T09:17:52.496Z,34.88
2018-11-28T09:20:21.194Z,34.83
2018-11-28T09:22:49.860Z,38.63
2018-11-28T09:25:19.095Z,28.92
2018-11-28T09:27:50.965Z,33.35
2018-11-28T09:30:20.289Z,30.80
2018-11-28T09:32:49.933Z,33.63
2018-11-28T09:35:19.264Z,31.60
2018-11-28T09:37:48.123Z,30.40
2018-11-28T09:40:20.841Z,32.10
2018-11-28T09:42:50.681Z,29.95
2018-11-28T09:45:19.915Z,39.15
2018-11-28T09:47:48.599Z,35.52
2018-11-28T09:50:20.173Z,30.48
2018-11-28T09:52:48.878Z,35.40
2018-11-28T09:55:18.817Z,28.87
2018-11-28T09:57:47.557Z,34.25
2018-11-28T10:00:19.167Z,34.03
2018-11-28T10:02:48.522Z,25.75
2018-11-28T10:05:20.559Z,27.40
2018-11-28T10:07:49.553Z,31.65
2018-11-28T10:10:18.333Z,31.42
2018-11-28T10:12:47.011Z,31.30
2018-11-28T10:15:18.044Z,30.82
2018-11-28T10:17:47.171Z,26.40
2018-11-28T10:20:16.524Z,25.15
2018-11-28T10:22:45.777Z,25.50
2018-11-28T10:25:16.612Z,28.92
2018-11-28T10:27:47.492Z,23.18
2018-11-28T10:30:24.121Z,28.05
2018-11-28T10:32:53.410Z,27.82
2018-11-28T10:35:22.144Z,24.65
2018-11-28T10:37:50.897Z,28.30
2018-11-28T10:40:21.379Z,29.80
2018-11-28T10:42:51.188Z,28.15
2018-11-28T10:45:21.693Z,26.05
2018-11-28T10:47:50.547Z,26.30
2018-11-28T10:50:20.107Z,25.00
2018-11-28T10:52:48.902Z,24.65
2018-11-28T10:55:22.548Z,21.35
2018-11-28T10:57:51.339Z,31.55
2018-11-28T11:00:28.574Z,63.15
2018-11-28T11:03:02.668Z,25.62
2018-11-28T11:05:36.839Z,25.52
2018-11-28T11:08:11.182Z,22.45
2018-11-28T11:10:45.126Z,23.02
2018-11-28T11:13:19.230Z,26.93
2018-11-28T11:15:53.320Z,22.22
2018-11-28T11:18:22.832Z,25.17
2018-11-28T11:20:51.553Z,25.60
2018-11-28T11:23:20.601Z,24.80
2018-11-28T11:25:49.562Z,25.55
2018-11-28T11:28:18.396Z,23.83
2018-11-28T11:30:47.131Z,21.55
2018-11-28T11:33:15.863Z,24.15
2018-11-28T11:35:44.516Z,25.88
2018-11-28T11:38:13.213Z,32.20
2018-11-28T11:40:41.846Z,24.02
2018-11-28T11:43:10.886Z,23.83
2018-11-28T11:45:39.785Z,21.05
2018-11-28T11:48:08.542Z,22.70
2018-11-28T11:50:37.269Z,20.10
2018-11-28T11:53:06.582Z,22.80
2018-11-28T11:55:36.376Z,26.77
2018-11-28T11:58:06.612Z,19.62
2018-11-28T12:00:35.762Z,21.85
2018-11-28T12:03:11.732Z,19.27
2018-11-28T12:05:49.789Z,20.57
2018-11-28T12:08:18.464Z,19.70
2018-11-28T12:10:47.965Z,26.05
2018-11-28T12:13:16.695Z,27.00
2018-11-28T12:15:45.357Z,24.30
2018-11-28T12:18:14.036Z,19.70
2018-11-28T12:20:46.221Z,24.65
2018-11-28T12:23:15.436Z,23.07
2018-11-28T12:25:44.049Z,18.67
2018-11-28T12:28:13.977Z,25.80
2018-11-28T12:30:41.411Z,19.62
2018-11-28T12:33:10.174Z,23.95
2018-11-28T12:35:39.550Z,23.47
2018-11-28T12:38:08.275Z,20.72
2018-11-28T12:40:37.448Z,22.22
2018-11-28T12:43:08.584Z,26.57
2018-11-28T12:45:39.018Z,20.17
2018-11-28T12:48:07.704Z,21.23
2018-11-28T12:50:36.382Z,24.60
2018-11-28T12:53:06.039Z,19.95
2018-11-28T12:55:36.303Z,24.15
2018-11-28T12:58:06.169Z,17.67
2018-11-28T13:00:36.751Z,20.92
2018-11-28T13:03:07.330Z,25.90
2018-11-28T13:05:36.430Z,17.62
2018-11-28T13:08:05.389Z,22.70
2018-11-28T13:10:36.048Z,21.10
2018-11-28T13:13:05.613Z,19.67
2018-11-28T13:15:34.609Z,18.35
2018-11-28T13:18:06.343Z,20.30
2018-11-28T13:20:35.325Z,24.05
2018-11-28T13:23:04.241Z,29.57
2018-11-28T13:25:33.063Z,14.75
2018-11-28T13:28:02.783Z,16.27
2018-11-28T13:30:31.455Z,20.20
2018-11-28T13:33:00.170Z,20.82
2018-11-28T13:35:28.933Z,20.23
2018-11-28T13:38:03.023Z,21.70
2018-11-28T13:40:31.835Z,22.17
2018-11-28T13:43:00.603Z,21.80
2018-11-28T13:45:31.057Z,19.77
2018-11-28T13:47:59.824Z,28.07
2018-11-28T13:50:28.498Z,23.02
2018-11-28T13:52:57.978Z,20.48
2018-11-28T13:55:40.160Z,18.10
2018-11-28T13:58:03.195Z,21.68
2018-11-28T14:00:31.976Z,15.60
2018-11-28T14:03:00.625Z,21.82
2018-11-28T14:05:29.415Z,20.48
2018-11-28T14:07:58.110Z,17.50
2018-11-28T14:10:26.878Z,19.60
2018-11-28T14:12:55.566Z,16.20
2018-11-28T14:15:24.404Z,17.90
2018-11-28T14:18:01.145Z,17.15
2018-11-28T14:20:29.829Z,21.17
2018-11-28T14:22:58.451Z,19.07
2018-11-28T14:25:27.244Z,15.48
2018-11-28T14:27:55.875Z,14.23
2018-11-28T14:30:25.337Z,18.42
2018-11-28T14:32:53.980Z,14.35
2018-11-28T14:35:23.306Z,17.42
2018-11-28T14:37:51.962Z,22.62
2018-11-28T14:40:24.750Z,15.60
2018-11-28T14:42:54.532Z,13.78
2018-11-28T14:45:23.316Z,18.92
2018-11-28T14:47:52.365Z,21.87
2018-11-28T14:50:23.076Z,14.28
2018-11-28T14:52:52.744Z,16.65
2018-11-28T14:55:23.506Z,18.73
2018-11-28T14:57:52.444Z,15.13
2018-11-28T15:00:26.307Z,14.10
2018-11-28T15:02:57.978Z,22.73
2018-11-28T15:05:37.640Z,15.48
2018-11-28T15:08:12.843Z,14.23
2018-11-28T15:10:56.292Z,18.20
2018-11-28T15:13:25.361Z,16.95
2018-11-28T15:15:54.141Z,13.70
2018-11-28T15:18:23.148Z,15.65
2018-11-28T15:20:51.876Z,24.10
2018-11-28T15:26:00.584Z,18.90
2018-11-28T15:28:29.344Z,24.85
2018-11-28T15:30:58.172Z,29.02
2018-11-28T15:33:26.961Z,22.13
2018-11-28T15:35:55.672Z,26.50
2018-11-28T15:38:24.643Z,16.67
2018-11-28T15:40:53.529Z,20.00
2018-11-28T15:43:22.234Z,22.25
2018-11-28T15:45:51.133Z,16.45
2018-11-28T15:48:19.919Z,15.90
2018-11-28T15:53:32.140Z,15.18
2018-11-28T15:56:01.044Z,16.95
2018-11-28T15:58:30.022Z,17.12
2018-11-28T16:00:58.766Z,15.58
2018-11-28T16:03:27.555Z,18.42
2018-11-28T16:05:56.493Z,19.10
2018-11-28T16:08:25.216Z,16.10
2018-11-28T16:10:54.166Z,17.17
2018-11-28T16:13:23.025Z,16.17
2018-11-28T16:15:54.099Z,23.18
2018-11-28T16:18:22.876Z,21.77
2018-11-28T16:20:51.617Z,16.57
2018-11-28T16:23:20.333Z,16.05
2018-11-28T16:25:49.042Z,15.10
2018-11-28T16:28:17.774Z,15.88
2018-11-28T16:30:46.736Z,15.50
2018-11-28T16:33:15.397Z,18.52
2018-11-28T16:35:44.198Z,20.60
2018-11-28T16:38:13.011Z,18.27
2018-11-28T16:40:42.488Z,20.17
2018-11-28T16:43:11.249Z,20.77
2018-11-28T16:45:39.931Z,21.45
2018-11-28T16:48:08.644Z,18.07
2018-11-28T16:50:37.541Z,20.88
2018-11-28T16:53:06.891Z,16.80
2018-11-28T16:55:35.655Z,16.17
2018-11-28T16:58:04.516Z,20.20
2018-11-28T17:00:34.637Z,18.48
2018-11-28T17:03:03.456Z,19.98
2018-11-28T17:05:32.211Z,21.02
2018-11-28T17:08:01.104Z,19.25
2018-11-28T17:10:30.619Z,18.07
2018-11-28T17:13:00.535Z,20.92
2018-11-28T17:15:29.379Z,18.10
2018-11-28T17:17:58.212Z,23.87
2018-11-28T17:20:28.222Z,29.50
2018-11-28T17:22:58.867Z,26.17
2018-11-28T17:25:31.856Z,24.43
2018-11-28T17:28:00.592Z,20.95
2018-11-28T17:30:31.903Z,28.10
2018-11-28T17:33:00.544Z,20.10
2018-11-28T17:35:29.129Z,16.35
2018-11-28T17:37:58.232Z,21.15
2018-11-28T17:40:28.162Z,23.80
2018-11-28T17:42:58.473Z,22.15
2018-11-28T17:45:28.205Z,26.20
2018-11-28T17:47:57.045Z,26.23
2018-11-28T17:50:26.616Z,34.27
2018-11-28T17:53:09.709Z,21.35
2018-11-28T17:55:44.353Z,29.95
2018-11-28T17:58:13.075Z,30.43
2018-11-28T18:00:41.878Z,25.02
2018-11-28T18:03:10.564Z,20.52
2018-11-28T18:05:39.978Z,22.35
2018-11-28T18:08:08.697Z,29.00
2018-11-28T18:10:37.303Z,23.92
2018-11-28T18:13:09.304Z,25.23
2018-11-28T18:15:38.423Z,25.12
2018-11-28T18:18:08.718Z,25.45
2018-11-28T18:20:37.594Z,30.52
2018-11-28T18:23:08.628Z,27.48
2018-11-28T18:25:37.551Z,28.83
2018-11-28T18:28:07.647Z,24.80
2018-11-28T18:30:36.697Z,30.10
2018-11-28T18:33:05.919Z,25.00
2018-11-28T18:35:34.605Z,22.95
2018-11-28T18:38:03.515Z,23.30
2018-11-28T18:40:32.168Z,21.52
2018-11-28T18:43:00.949Z,26.05
2018-11-28T18:45:31.617Z,31.85
2018-11-28T18:48:00.394Z,26.25
2018-11-28T18:50:29.070Z,22.37
2018-11-28T18:52:58.236Z,28.02
2018-11-28T18:55:27.063Z,24.82
2018-11-28T18:57:56.800Z,26.35
2018-11-28T19:00:26.438Z,23.30
2018-11-28T19:02:56.565Z,24.52
2018-11-28T19:05:25.987Z,35.35
2018-11-28T19:07:54.856Z,27.37
2018-11-28T19:10:26.550Z,24.77
2018-11-28T19:12:54.710Z,22.58
2018-11-28T19:15:24.863Z,30.85
2018-11-28T19:17:54.315Z,30.40
2018-11-28T19:20:23.882Z,24.30
2018-11-28T19:22:55.577Z,22.13
2018-11-28T19:25:25.118Z,27.77
2018-11-28T19:27:53.766Z,41.30
2018-11-28T19:30:30.663Z,28.20
2018-11-28T19:32:54.134Z,28.25
2018-11-28T19:35:23.798Z,32.83
2018-11-28T19:37:51.684Z,25.50
2018-11-28T19:40:26.569Z,26.20
2018-11-28T19:42:55.442Z,23.98
2018-11-28T19:45:24.099Z,28.23
2018-11-28T19:47:52.756Z,28.60
2018-11-28T19:50:25.032Z,28.92
2018-11-28T19:52:53.999Z,32.63
2018-11-28T19:55:22.676Z,33.08
2018-11-28T19:57:51.344Z,28.60
2018-11-28T20:00:20.213Z,32.30
2018-11-28T20:02:48.815Z,26.40
2018-11-28T20:05:17.771Z,28.07
2018-11-28T20:07:47.835Z,30.45
2018-11-28T20:10:17.819Z,27.00
2018-11-28T20:12:46.534Z,23.75
2018-11-28T20:15:30.716Z,23.15
2018-11-28T20:17:59.382Z,29.15
2018-11-28T20:20:28.025Z,24.70
2018-11-28T20:22:56.989Z,22.75
2018-11-28T20:25:25.816Z,25.30
2018-11-28T20:28:00.813Z,25.92
2018-11-28T20:30:32.428Z,25.85
2018-11-28T20:33:01.126Z,22.85
2018-11-28T20:38:18.158Z,19.92
2018-11-28T20:40:46.844Z,27.50
2018-11-28T20:43:15.699Z,22.90
2018-11-28T20:45:44.630Z,21.55
2018-11-28T20:48:13.406Z,28.98
2018-11-28T20:50:42.113Z,20.57
2018-11-28T20:53:13.730Z,19.42
2018-11-28T20:55:42.459Z,22.00
2018-11-28T20:58:11.165Z,16.90
2018-11-28T21:00:40.024Z,23.62
2018-11-28T21:03:08.806Z,18.45
2018-11-28T21:05:37.676Z,21.07
2018-11-28T21:08:08.622Z,19.45
2018-11-28T21:10:40.497Z,23.22
2018-11-28T21:13:11.339Z,23.02
2018-11-28T21:15:40.530Z,19.67
2018-11-28T21:18:09.734Z,20.92
2018-11-28T21:20:40.063Z,24.25
2018-11-28T21:23:11.109Z,21.07
2018-11-28T21:25:39.806Z,22.20
2018-11-28T21:30:48.058Z,19.37
2018-11-28T21:33:16.673Z,16.82
2018-11-28T21:35:48.558Z,17.77
2018-11-28T21:38:17.241Z,16.85
2018-11-28T21:40:45.909Z,18.05
2018-11-28T21:43:14.710Z,18.35
2018-11-28T21:45:43.438Z,18.73
2018-11-28T21:48:12.137Z,19.35
2018-11-28T21:50:41.850Z,15.25
2018-11-28T21:53:10.515Z,17.75
2018-11-28T21:55:39.279Z,15.83
2018-11-28T21:58:07.993Z,17.07
2018-11-28T22:00:37.420Z,16.07
2018-11-28T22:03:07.804Z,13.28
2018-11-28T22:05:36.526Z,14.90
2018-11-28T22:08:05.313Z,16.87
2018-11-28T22:10:34.138Z,18.52
2018-11-28T22:13:02.992Z,10.53
2018-11-28T22:15:31.622Z,12.60
2018-11-28T22:18:00.571Z,10.78
2018-11-28T22:20:29.321Z,13.95
2018-11-28T22:22:58.065Z,12.80
2018-11-28T22:25:27.703Z,13.58
2018-11-28T22:27:56.654Z,17.23
2018-11-28T22:30:27.549Z,14.20
2018-11-28T22:32:57.048Z,14.80
2018-11-28T22:35:25.766Z,13.70
2018-11-28T22:37:54.490Z,11.70
2018-11-28T22:40:29.477Z,12.23
2018-11-28T22:42:58.159Z,10.98
2018-11-28T22:45:29.371Z,14.28
2018-11-28T22:47:58.147Z,13.65
2018-11-28T22:50:26.885Z,11.68
2018-11-28T22:52:56.686Z,12.93
2018-11-28T22:55:25.380Z,9.75
2018-11-28T22:57:54.021Z,11.60
2018-11-28T23:00:29.780Z,10.65
2018-11-28T23:03:01.017Z,10.80
2018-11-28T23:05:38.648Z,12.25
2018-11-28T23:08:08.953Z,15.30
2018-11-28T23:10:38.509Z,12.80
2018-11-28T23:13:08.291Z,10.93
2018-11-28T23:15:36.924Z,15.30
2018-11-28T23:18:06.546Z,11.78
2018-11-28T23:20:35.182Z,10.40
2018-11-28T23:23:04.044Z,12.53
2018-11-28T23:25:32.741Z,10.72
2018-11-28T23:28:01.399Z,8.85
2018-11-28T23:30:30.129Z,10.90
2018-11-28T23:32:58.740Z,13.48
2018-11-28T23:35:27.468Z,12.28
2018-11-28T23:37:56.127Z,11.97
2018-11-28T23:40:25.893Z,10.75
2018-11-28T23:42:56.302Z,17.15
2018-11-28T23:45:25.735Z,13.05
2018-11-28T23:47:54.570Z,15.23
2018-11-28T23:50:24.902Z,11.60
2018-11-28T23:52:54.347Z,13.00
2018-11-28T23:55:27.283Z,14.07
2018-11-28T23:57:55.999Z,11.48
